Ava Foss — WDF5779 — position and weather

sailwx.info

Track history (hours):
 
Tides and Currents Weather Stations Pressure Air Temp Water Temp Dewpoint Dewpoint Depression Visibility Wind Speed Wind Dir Waves Ship Positions

Ava Foss

Owner: Foss Maritime Company, Seattle, WA. More information available from US FCC via Universal Licensing System and Coast Guard Vessel Documentation Center.

Last reported at 2017-Jul-21 18:02 UTC. Time now 2017-Jul-23 00:50 UTC.
Position N 33°54' W 118°27'.

Length 10 m; draft 2.5 m.

Type: Passenger vessel. MMSI: 367467120.

Date/timePositionNaut miles runAvg speedWind from/ knotsBaromVisibWave heightAir tempDewpointWater temp
2017-Jul-21 18:02N 33°54' W 118°27'015.4
2017-Jul-21 18:00N 33°54' W 118°27'1 0.0
2017-Jul-20 13:49N 33°54' W 118°27'0 0.2
2017-Jul-20 13:17N 33°54' W 118°27'2 5.9
2017-Jul-20 12:58N 33°53' W 118°26'0 0.0
2017-Jul-19 23:30N 33°53' W 118°26'2 0.2
2017-Jul-19 10:45N 33°54' W 118°27'0 0.0
2017-Jul-19 10:08N 33°54' W 118°27'1 5.6
2017-Jul-19 09:54N 33°53' W 118°26'2 0.4
2017-Jul-19 05:08N 33°55' W 118°28'1 0.7
2017-Jul-19 04:16N 33°55' W 118°27'0 1.3
2017-Jul-19 04:01N 33°55' W 118°27'5 0.6
2017-Jul-18 20:00N 33°51' W 118°24'5 8.8
2017-Jul-18 19:26N 33°54' W 118°27'0 0.0
2017-Jul-18 00:20N 33°54' W 118°27'0 0.4
2017-Jul-17 23:17N 33°55' W 118°27'2 0.2
2017-Jul-17 17:08N 33°53' W 118°28'1 1.4
2017-Jul-17 16:03N 33°54' W 118°29'0 0.1
2017-Jul-17 16:00N 33°54' W 118°29'2 0.2
2017-Jul-17 06:28N 33°55' W 118°27'5 2.2
2017-Jul-17 04:06N 33°51' W 118°24'0 0.0
2017-Jul-17 03:48N 33°51' W 118°24'0 0.0
2017-Jul-17 03:30N 33°51' W 118°24'0 0.0
2017-Jul-17 02:58N 33°51' W 118°24'5 3.2
2017-Jul-17 01:17N 33°55' W 118°27'0 0.2
2017-Jul-17 01:00N 33°55' W 118°27'0 0.0
2017-Jul-17 00:30N 33°55' W 118°27'0 0.0
2017-Jul-17 00:00N 33°55' W 118°27'0 0.2
2017-Jul-16 23:25N 33°55' W 118°27'5 3.5
2017-Jul-16 21:55N 33°51' W 118°24'0 0.0
2017-Jul-16 21:30N 33°51' W 118°24'5 2.1
2017-Jul-16 19:12N 33°54' W 118°27'314.5
2017-Jul-16 19:00N 33°52' W 118°25'2 0.7
2017-Jul-16 16:11N 33°51' W 118°24'0 0.0
2017-Jul-16 15:48N 33°51' W 118°24'0 0.0
2017-Jul-16 13:55N 33°51' W 118°24'0 0.0
2017-Jul-16 13:20N 33°51' W 118°24'0 0.0
2017-Jul-16 12:38N 33°51' W 118°24'0 0.0
2017-Jul-16 12:29N 33°51' W 118°24'0 0.0
2017-Jul-16 09:35N 33°51' W 118°24'2 0.7
2017-Jul-16 06:11N 33°52' W 118°25'316.9
2017-Jul-16 06:00N 33°55' W 118°27'0 0.0
2017-Jul-16 02:49N 33°55' W 118°27'515.6
2017-Jul-16 02:30N 33°51' W 118°24'0 0.1
2017-Jul-16 00:19N 33°51' W 118°24'0 0.0
2017-Jul-15 23:49N 33°51' W 118°24'5 6.2
2017-Jul-15 23:02N 33°55' W 118°27'0 0.4
2017-Jul-15 22:51N 33°55' W 118°27'514.9
2017-Jul-15 22:30N 33°50' W 118°24'0 0.2
2017-Jul-15 21:26N 33°50' W 118°24'511.9
2017-Jul-15 21:01N 33°54' W 118°28'1 0.5
2017-Jul-15 19:40N 33°55' W 118°27'2 4.5
2017-Jul-15 19:15N 33°53' W 118°29'4 0.8
2017-Jul-15 14:38N 33°52' W 118°25'3 0.3
2017-Jul-15 03:11N 33°54' W 118°27'0 0.4
2017-Jul-15 03:00N 33°54' W 118°27'  
2017-Jul-12 20:26N 33°51' W 118°24'510.6
2017-Jul-12 19:58N 33°55' W 118°27'0 0.1
2017-Jul-12 18:41N 33°54' W 118°27'213.3
2017-Jul-12 18:31N 33°52' W 118°26'1 0.3
2017-Jul-12 14:43N 33°53' W 118°26'1 1.0
2017-Jul-12 13:19N 33°54' W 118°27'412.4
2017-Jul-12 13:00N 33°51' W 118°24'4 0.3
2017-Jul-11 22:16N 33°53' W 118°28'415.3
2017-Jul-11 22:00N 33°51' W 118°25'  
Track history (hours):
 
Tides and Currents Weather Stations Pressure Air Temp Water Temp Dewpoint Dewpoint Depression Visibility Wind Speed Wind Dir Waves Ship Positions

Ava Foss

Owner: Foss Maritime Company, Seattle, WA. More information available from US FCC via Universal Licensing System and Coast Guard Vessel Documentation Center.

Last reported at 2017-Jul-21 18:02 UTC. Time now 2017-Jul-23 00:50 UTC.
Position N 33°54' W 118°27'.

Length 10 m; draft 2.5 m.

Type: Passenger vessel. MMSI: 367467120.

Date/timePositionNaut miles runAvg speedWind from/ knotsBaromVisibWave heightAir tempDewpointWater temp
2017-Jul-21 18:02N 33°54' W 118°27'015.4
2017-Jul-21 18:00N 33°54' W 118°27'1 0.0
2017-Jul-20 13:49N 33°54' W 118°27'0 0.2
2017-Jul-20 13:17N 33°54' W 118°27'2 5.9
2017-Jul-20 12:58N 33°53' W 118°26'0 0.0
2017-Jul-19 23:30N 33°53' W 118°26'2 0.2
2017-Jul-19 10:45N 33°54' W 118°27'0 0.0
2017-Jul-19 10:08N 33°54' W 118°27'1 5.6
2017-Jul-19 09:54N 33°53' W 118°26'2 0.4
2017-Jul-19 05:08N 33°55' W 118°28'1 0.7
2017-Jul-19 04:16N 33°55' W 118°27'0 1.3
2017-Jul-19 04:01N 33°55' W 118°27'5 0.6
2017-Jul-18 20:00N 33°51' W 118°24'5 8.8
2017-Jul-18 19:26N 33°54' W 118°27'0 0.0
2017-Jul-18 00:20N 33°54' W 118°27'0 0.4
2017-Jul-17 23:17N 33°55' W 118°27'2 0.2
2017-Jul-17 17:08N 33°53' W 118°28'1 1.4
2017-Jul-17 16:03N 33°54' W 118°29'0 0.1
2017-Jul-17 16:00N 33°54' W 118°29'2 0.2
2017-Jul-17 06:28N 33°55' W 118°27'5 2.2
2017-Jul-17 04:06N 33°51' W 118°24'0 0.0
2017-Jul-17 03:48N 33°51' W 118°24'0 0.0
2017-Jul-17 03:30N 33°51' W 118°24'0 0.0
2017-Jul-17 02:58N 33°51' W 118°24'5 3.2
2017-Jul-17 01:17N 33°55' W 118°27'0 0.2
2017-Jul-17 01:00N 33°55' W 118°27'0 0.0
2017-Jul-17 00:30N 33°55' W 118°27'0 0.0
2017-Jul-17 00:00N 33°55' W 118°27'0 0.2
2017-Jul-16 23:25N 33°55' W 118°27'5 3.5
2017-Jul-16 21:55N 33°51' W 118°24'0 0.0
2017-Jul-16 21:30N 33°51' W 118°24'5 2.1
2017-Jul-16 19:12N 33°54' W 118°27'314.5
2017-Jul-16 19:00N 33°52' W 118°25'2 0.7
2017-Jul-16 16:11N 33°51' W 118°24'0 0.0
2017-Jul-16 15:48N 33°51' W 118°24'0 0.0
2017-Jul-16 13:55N 33°51' W 118°24'0 0.0
2017-Jul-16 13:20N 33°51' W 118°24'0 0.0
2017-Jul-16 12:38N 33°51' W 118°24'0 0.0
2017-Jul-16 12:29N 33°51' W 118°24'0 0.0
2017-Jul-16 09:35N 33°51' W 118°24'2 0.7
2017-Jul-16 06:11N 33°52' W 118°25'316.9
2017-Jul-16 06:00N 33°55' W 118°27'0 0.0
2017-Jul-16 02:49N 33°55' W 118°27'515.6
2017-Jul-16 02:30N 33°51' W 118°24'0 0.1
2017-Jul-16 00:19N 33°51' W 118°24'0 0.0
2017-Jul-15 23:49N 33°51' W 118°24'5 6.2
2017-Jul-15 23:02N 33°55' W 118°27'0 0.4
2017-Jul-15 22:51N 33°55' W 118°27'514.9
2017-Jul-15 22:30N 33°50' W 118°24'0 0.2
2017-Jul-15 21:26N 33°50' W 118°24'511.9
2017-Jul-15 21:01N 33°54' W 118°28'1 0.5
2017-Jul-15 19:40N 33°55' W 118°27'2 4.5
2017-Jul-15 19:15N 33°53' W 118°29'4 0.8
2017-Jul-15 14:38N 33°52' W 118°25'3 0.3
2017-Jul-15 03:11N 33°54' W 118°27'0 0.4
2017-Jul-15 03:00N 33°54' W 118°27'  
2017-Jul-12 20:26N 33°51' W 118°24'510.6
2017-Jul-12 19:58N 33°55' W 118°27'0 0.1
2017-Jul-12 18:41N 33°54' W 118°27'213.3
2017-Jul-12 18:31N 33°52' W 118°26'1 0.3
2017-Jul-12 14:43N 33°53' W 118°26'1 1.0
2017-Jul-12 13:19N 33°54' W 118°27'412.4
2017-Jul-12 13:00N 33°51' W 118°24'4 0.3
2017-Jul-11 22:16N 33°53' W 118°28'415.3
2017-Jul-11 22:00N 33°51' W 118°25'  

Dump ship's entire track history